sensor_id;sensor_type;location;lat;lon;timestamp;P1;durP1;ratioP1;P2;durP2;ratioP2
70426;SDS011;57872;55.432;37.248;2023-02-20T00:03:09;118.33;;;50.53;;
70426;SDS011;57872;55.432;37.248;2023-02-20T00:08:17;38.37;;;16.30;;
70426;SDS011;57872;55.432;37.248;2023-02-20T00:13:18;37.13;;;15.40;;
70426;SDS011;57872;55.432;37.248;2023-02-20T00:18:18;37.13;;;14.87;;
70426;SDS011;57872;55.432;37.248;2023-02-20T00:23:19;40.07;;;14.70;;
70426;SDS011;57872;55.432;37.248;2023-02-20T00:28:20;39.40;;;16.40;;
70426;SDS011;57872;55.432;37.248;2023-02-20T00:33:21;36.70;;;14.63;;
70426;SDS011;57872;55.432;37.248;2023-02-20T00:38:22;37.47;;;15.03;;
70426;SDS011;57872;55.432;37.248;2023-02-20T00:43:23;37.33;;;14.67;;
70426;SDS011;57872;55.432;37.248;2023-02-20T00:48:24;34.83;;;15.37;;
70426;SDS011;57872;55.432;37.248;2023-02-20T00:53:44;35.33;;;14.53;;
70426;SDS011;57872;55.432;37.248;2023-02-20T00:58:45;40.27;;;15.63;;
70426;SDS011;57872;55.432;37.248;2023-02-20T01:03:46;39.70;;;14.17;;
70426;SDS011;57872;55.432;37.248;2023-02-20T01:08:48;37.70;;;14.20;;
70426;SDS011;57872;55.432;37.248;2023-02-20T01:13:49;35.97;;;14.40;;
70426;SDS011;57872;55.432;37.248;2023-02-20T01:18:50;40.40;;;16.63;;
70426;SDS011;57872;55.432;37.248;2023-02-20T01:23:51;37.33;;;14.40;;
70426;SDS011;57872;55.432;37.248;2023-02-20T01:28:53;37.67;;;16.27;;
70426;SDS011;57872;55.432;37.248;2023-02-20T01:33:54;38.20;;;13.70;;
70426;SDS011;57872;55.432;37.248;2023-02-20T01:38:55;34.67;;;13.63;;
70426;SDS011;57872;55.432;37.248;2023-02-20T01:43:56;37.17;;;13.83;;
70426;SDS011;57872;55.432;37.248;2023-02-20T01:49:01;36.30;;;13.87;;
70426;SDS011;57872;55.432;37.248;2023-02-20T01:54:05;43.43;;;14.80;;
70426;SDS011;57872;55.432;37.248;2023-02-20T01:59:07;42.27;;;16.30;;
70426;SDS011;57872;55.432;37.248;2023-02-20T02:04:08;37.90;;;14.20;;
70426;SDS011;57872;55.432;37.248;2023-02-20T02:09:17;39.33;;;14.90;;
70426;SDS011;57872;55.432;37.248;2023-02-20T02:14:22;36.43;;;14.70;;
70426;SDS011;57872;55.432;37.248;2023-02-20T02:30:17;38.17;;;14.30;;
70426;SDS011;57872;55.432;37.248;2023-02-20T02:41:27;38.83;;;16.03;;
70426;SDS011;57872;55.432;37.248;2023-02-20T02:52:16;39.20;;;16.08;;
70426;SDS011;57872;55.432;37.248;2023-02-20T02:57:37;42.93;;;16.80;;
70426;SDS011;57872;55.432;37.248;2023-02-20T03:02:41;38.07;;;15.30;;
70426;SDS011;57872;55.432;37.248;2023-02-20T03:07:58;42.77;;;16.17;;
70426;SDS011;57872;55.432;37.248;2023-02-20T03:23:35;38.70;;;16.20;;
70426;SDS011;57872;55.432;37.248;2023-02-20T03:28:51;44.00;;;16.43;;
70426;SDS011;57872;55.432;37.248;2023-02-20T03:33:59;41.37;;;16.87;;
70426;SDS011;57872;55.432;37.248;2023-02-20T03:39:28;45.60;;;16.83;;
70426;SDS011;57872;55.432;37.248;2023-02-20T03:44:50;45.77;;;17.37;;
70426;SDS011;57872;55.432;37.248;2023-02-20T03:49:53;42.10;;;17.33;;
70426;SDS011;57872;55.432;37.248;2023-02-20T03:54:55;42.93;;;16.70;;
70426;SDS011;57872;55.432;37.248;2023-02-20T03:59:59;41.17;;;18.37;;
70426;SDS011;57872;55.432;37.248;2023-02-20T04:05:12;48.13;;;19.63;;
70426;SDS011;57872;55.432;37.248;2023-02-20T04:10:17;49.10;;;18.50;;
70426;SDS011;57872;55.432;37.248;2023-02-20T04:15:25;46.67;;;18.10;;
70426;SDS011;57872;55.432;37.248;2023-02-20T04:20:30;40.77;;;17.83;;
70426;SDS011;57872;55.432;37.248;2023-02-20T04:25:43;44.40;;;20.77;;
70426;SDS011;57872;55.432;37.248;2023-02-20T04:30:46;45.80;;;19.40;;
70426;SDS011;57872;55.432;37.248;2023-02-20T04:35:48;54.33;;;21.17;;
70426;SDS011;57872;55.432;37.248;2023-02-20T04:40:49;47.03;;;19.30;;
70426;SDS011;57872;55.432;37.248;2023-02-20T04:45:51;48.07;;;19.27;;
70426;SDS011;57872;55.432;37.248;2023-02-20T04:50:56;50.17;;;20.13;;
70426;SDS011;57872;55.432;37.248;2023-02-20T04:55:57;53.83;;;21.03;;
70426;SDS011;57872;55.432;37.248;2023-02-20T05:00:59;51.00;;;19.83;;
70426;SDS011;57872;55.432;37.248;2023-02-20T05:06:03;52.87;;;20.27;;
70426;SDS011;57872;55.432;37.248;2023-02-20T05:11:27;49.37;;;20.90;;
70426;SDS011;57872;55.432;37.248;2023-02-20T05:16:37;54.40;;;22.40;;
70426;SDS011;57872;55.432;37.248;2023-02-20T05:21:42;55.53;;;22.67;;
70426;SDS011;57872;55.432;37.248;2023-02-20T05:27:02;56.83;;;22.27;;
70426;SDS011;57872;55.432;37.248;2023-02-20T05:32:04;59.43;;;23.07;;
70426;SDS011;57872;55.432;37.248;2023-02-20T05:37:07;52.20;;;21.80;;
70426;SDS011;57872;55.432;37.248;2023-02-20T05:42:13;61.63;;;22.87;;
70426;SDS011;57872;55.432;37.248;2023-02-20T05:47:15;53.90;;;21.27;;
70426;SDS011;57872;55.432;37.248;2023-02-20T05:52:33;53.67;;;22.47;;
70426;SDS011;57872;55.432;37.248;2023-02-20T05:57:42;61.70;;;22.40;;
70426;SDS011;57872;55.432;37.248;2023-02-20T06:02:43;59.80;;;23.50;;
70426;SDS011;57872;55.432;37.248;2023-02-20T06:08:04;66.97;;;22.63;;
70426;SDS011;57872;55.432;37.248;2023-02-20T06:13:14;65.13;;;24.13;;
70426;SDS011;57872;55.432;37.248;2023-02-20T06:23:42;65.13;;;24.58;;
70426;SDS011;57872;55.432;37.248;2023-02-20T06:28:47;76.33;;;27.27;;
70426;SDS011;57872;55.432;37.248;2023-02-20T06:33:50;71.70;;;26.17;;
70426;SDS011;57872;55.432;37.248;2023-02-20T06:39:12;74.30;;;26.20;;
70426;SDS011;57872;55.432;37.248;2023-02-20T06:44:13;51.77;;;21.57;;
70426;SDS011;57872;55.432;37.248;2023-02-20T06:49:22;57.03;;;20.77;;
70426;SDS011;57872;55.432;37.248;2023-02-20T06:54:26;49.80;;;20.27;;
70426;SDS011;57872;55.432;37.248;2023-02-20T06:59:36;46.90;;;19.10;;
70426;SDS011;57872;55.432;37.248;2023-02-20T07:04:41;41.78;;;18.20;;
70426;SDS011;57872;55.432;37.248;2023-02-20T07:09:51;45.70;;;17.87;;
70426;SDS011;57872;55.432;37.248;2023-02-20T07:26:22;32.27;;;12.60;;
70426;SDS011;57872;55.432;37.248;2023-02-20T07:36:34;29.53;;;12.93;;
70426;SDS011;57872;55.432;37.248;2023-02-20T07:42:09;34.73;;;13.07;;
70426;SDS011;57872;55.432;37.248;2023-02-20T07:47:25;38.87;;;14.80;;
70426;SDS011;57872;55.432;37.248;2023-02-20T07:53:01;41.65;;;15.30;;
70426;SDS011;57872;55.432;37.248;2023-02-20T08:09:26;34.40;;;12.97;;
70426;SDS011;57872;55.432;37.248;2023-02-20T08:14:30;37.10;;;14.70;;
70426;SDS011;57872;55.432;37.248;2023-02-20T08:19:34;34.87;;;14.30;;
70426;SDS011;57872;55.432;37.248;2023-02-20T08:24:41;35.03;;;13.60;;
70426;SDS011;57872;55.432;37.248;2023-02-20T08:29:44;34.03;;;14.60;;
70426;SDS011;57872;55.432;37.248;2023-02-20T08:46:48;38.30;;;14.80;;
70426;SDS011;57872;55.432;37.248;2023-02-20T08:51:58;40.00;;;14.97;;
70426;SDS011;57872;55.432;37.248;2023-02-20T08:56:59;34.93;;;14.97;;
70426;SDS011;57872;55.432;37.248;2023-02-20T09:02:07;35.00;;;16.67;;
70426;SDS011;57872;55.432;37.248;2023-02-20T09:07:19;37.90;;;16.67;;
70426;SDS011;57872;55.432;37.248;2023-02-20T09:24:03;40.33;;;16.33;;
70426;SDS011;57872;55.432;37.248;2023-02-20T09:35:05;38.87;;;17.43;;
70426;SDS011;57872;55.432;37.248;2023-02-20T09:40:05;41.60;;;17.80;;
70426;SDS011;57872;55.432;37.248;2023-02-20T09:55:43;36.20;;;15.97;;
70426;SDS011;57872;55.432;37.248;2023-02-20T10:00:46;38.00;;;17.03;;
70426;SDS011;57872;55.432;37.248;2023-02-20T10:05:47;39.53;;;17.70;;
70426;SDS011;57872;55.432;37.248;2023-02-20T10:10:50;40.80;;;17.67;;
70426;SDS011;57872;55.432;37.248;2023-02-20T10:21:16;43.57;;;18.63;;
70426;SDS011;57872;55.432;37.248;2023-02-20T10:26:29;44.53;;;19.43;;
70426;SDS011;57872;55.432;37.248;2023-02-20T10:31:37;39.97;;;18.60;;
70426;SDS011;57872;55.432;37.248;2023-02-20T10:36:43;44.90;;;19.63;;
70426;SDS011;57872;55.432;37.248;2023-02-20T10:53:00;49.17;;;21.30;;
70426;SDS011;57872;55.432;37.248;2023-02-20T10:58:13;43.87;;;19.50;;
70426;SDS011;57872;55.432;37.248;2023-02-20T11:08:44;44.90;;;21.83;;
70426;SDS011;57872;55.432;37.248;2023-02-20T11:13:46;51.00;;;21.30;;
70426;SDS011;57872;55.432;37.248;2023-02-20T11:18:48;46.73;;;20.43;;
70426;SDS011;57872;55.432;37.248;2023-02-20T11:24:00;44.40;;;20.20;;
70426;SDS011;57872;55.432;37.248;2023-02-20T11:29:23;49.00;;;21.03;;
70426;SDS011;57872;55.432;37.248;2023-02-20T11:34:40;51.17;;;21.87;;
70426;SDS011;57872;55.432;37.248;2023-02-20T11:39:49;48.87;;;22.40;;
70426;SDS011;57872;55.432;37.248;2023-02-20T11:45:33;46.37;;;21.77;;
70426;SDS011;57872;55.432;37.248;2023-02-20T11:50:35;53.40;;;20.90;;
70426;SDS011;57872;55.432;37.248;2023-02-20T12:01:34;50.60;;;21.87;;
70426;SDS011;57872;55.432;37.248;2023-02-20T12:12:26;51.37;;;22.30;;
70426;SDS011;57872;55.432;37.248;2023-02-20T12:29:48;52.00;;;21.87;;
70426;SDS011;57872;55.432;37.248;2023-02-20T13:05:18;42.47;;;18.53;;
70426;SDS011;57872;55.432;37.248;2023-02-20T13:28:53;47.87;;;20.90;;
70426;SDS011;57872;55.432;37.248;2023-02-20T13:57:30;41.87;;;18.00;;
70426;SDS011;57872;55.432;37.248;2023-02-20T14:02:46;43.47;;;17.45;;
70426;SDS011;57872;55.432;37.248;2023-02-20T14:08:05;50.53;;;17.87;;
70426;SDS011;57872;55.432;37.248;2023-02-20T14:14:30;45.00;;;18.50;;
70426;SDS011;57872;55.432;37.248;2023-02-20T14:26:26;42.87;;;16.90;;
70426;SDS011;57872;55.432;37.248;2023-02-20T14:31:55;44.67;;;17.47;;
70426;SDS011;57872;55.432;37.248;2023-02-20T14:42:30;44.80;;;16.07;;
70426;SDS011;57872;55.432;37.248;2023-02-20T15:05:50;31.53;;;14.17;;
70426;SDS011;57872;55.432;37.248;2023-02-20T15:10:54;34.03;;;14.70;;
70426;SDS011;57872;55.432;37.248;2023-02-20T15:16:06;34.20;;;13.87;;
70426;SDS011;57872;55.432;37.248;2023-02-20T15:59:45;35.65;;;15.05;;
70426;SDS011;57872;55.432;37.248;2023-02-20T16:36:33;46.53;;;17.17;;
70426;SDS011;57872;55.432;37.248;2023-02-20T16:58:57;36.10;;;13.90;;
70426;SDS011;57872;55.432;37.248;2023-02-20T17:16:21;33.33;;;13.73;;
70426;SDS011;57872;55.432;37.248;2023-02-20T17:21:24;39.77;;;14.63;;
70426;SDS011;57872;55.432;37.248;2023-02-20T17:26:29;34.57;;;14.37;;
70426;SDS011;57872;55.432;37.248;2023-02-20T19:19:53;43.53;;;16.53;;
70426;SDS011;57872;55.432;37.248;2023-02-20T19:24:55;44.50;;;17.20;;
70426;SDS011;57872;55.432;37.248;2023-02-20T19:30:04;44.63;;;17.50;;
70426;SDS011;57872;55.432;37.248;2023-02-20T19:35:11;42.80;;;16.70;;
70426;SDS011;57872;55.432;37.248;2023-02-20T19:40:22;42.67;;;18.00;;
70426;SDS011;57872;55.432;37.248;2023-02-20T19:45:28;47.07;;;17.73;;
70426;SDS011;57872;55.432;37.248;2023-02-20T19:50:29;42.70;;;17.97;;
70426;SDS011;57872;55.432;37.248;2023-02-20T19:55:30;44.70;;;16.63;;
70426;SDS011;57872;55.432;37.248;2023-02-20T20:00:36;40.13;;;16.60;;
70426;SDS011;57872;55.432;37.248;2023-02-20T20:05:49;44.37;;;19.20;;
70426;SDS011;57872;55.432;37.248;2023-02-20T20:10:50;46.50;;;18.63;;
70426;SDS011;57872;55.432;37.248;2023-02-20T20:21:42;43.20;;;17.20;;
70426;SDS011;57872;55.432;37.248;2023-02-20T20:26:49;46.67;;;18.87;;
70426;SDS011;57872;55.432;37.248;2023-02-20T20:49:33;47.33;;;19.23;;
70426;SDS011;57872;55.432;37.248;2023-02-20T20:54:37;52.90;;;19.03;;
70426;SDS011;57872;55.432;37.248;2023-02-20T21:05:18;47.57;;;19.77;;
70426;SDS011;57872;55.432;37.248;2023-02-20T21:10:20;52.33;;;19.97;;
70426;SDS011;57872;55.432;37.248;2023-02-20T21:15:21;53.43;;;19.00;;
70426;SDS011;57872;55.432;37.248;2023-02-20T21:20:23;52.17;;;20.63;;
70426;SDS011;57872;55.432;37.248;2023-02-20T21:25:25;55.47;;;20.60;;
70426;SDS011;57872;55.432;37.248;2023-02-20T21:30:27;61.90;;;22.03;;
70426;SDS011;57872;55.432;37.248;2023-02-20T22:36:48;69.05;;;24.75;;
70426;SDS011;57872;55.432;37.248;2023-02-20T23:02:32;61.17;;;22.87;;
70426;SDS011;57872;55.432;37.248;2023-02-20T23:08:58;59.80;;;21.50;;
70426;SDS011;57872;55.432;37.248;2023-02-20T23:21:19;62.00;;;21.80;;
70426;SDS011;57872;55.432;37.248;2023-02-20T23:45:56;59.83;;;20.87;;
